^^
Station Historical Data
Daily Summary for January 21, 2018 Units:  Metric    English   Both
« Previous Day
Next Day »
Daily Weekly Monthly Yearly Custom
  High: Low: Average:
Temperature: -17.8 °C 18.1 °C 22.8 °C
Dew Point: -17.8 °C 8 °C 12.2 °C
Humidity: Humidity% 28% 52%
Wind Speed: 0km/h 0km/h 3.7km/h
Wind Gust: 0km/h - -
Wind- - SW
Pressure: 0 hPa 1002.3 hPa -
Precipitation: 0 mm    
Historical Graphs
 
 
Tabular Data for January 21, 2018
Time Temperature Dew Point Pressure Wind Wind Speed Wind Gust Humidity Rainfall Rate (Hourly) solar Conditions
-17.8 °C -17.8 °C 0 hPa Calm     Humidity% 0 mm SolarRadiationWatts/m^2 W/m2 Conditions
00:00 20.3 °C 13.5 °C 1006.3 hPa Calm   1.6 km/h 65% 0 mm 0.0 W/m2
00:05 20.2 °C 13.6 °C 1006 hPa Calm     66% 0 mm 0.0 W/m2
00:10 20.2 °C 13.6 °C 1006.3 hPa Calm   3.2 km/h 66% 0 mm 0.0 W/m2
00:15 20.1 °C 13.8 °C 1006 hPa Calm   1.6 km/h 67% 0 mm 0.0 W/m2
00:20 20.1 °C 14 °C 1006 hPa Calm     68% 0 mm 0.0 W/m2
00:26 20 °C 13.9 °C 1006 hPa Calm   1.6 km/h 68% 0 mm 0.0 W/m2
00:31 19.9 °C 13.8 °C 1006 hPa Calm     68% 0 mm 0.0 W/m2
00:36 19.9 °C 13.8 °C 1005.6 hPa Calm     68% 0 mm 0.0 W/m2
00:41 19.8 °C 13.9 °C 1005.6 hPa Calm     69% 0 mm 0.0 W/m2
00:46 19.8 °C 13.9 °C 1005.6 hPa Calm     69% 0 mm 0.0 W/m2
00:51 19.8 °C 13.9 °C 1005.6 hPa Calm     69% 0 mm 0.0 W/m2
00:56 19.8 °C 13.9 °C 1005.6 hPa Calm     69% 0 mm 0.0 W/m2
01:01 19.7 °C 13.9 °C 1005.3 hPa Calm   1.6 km/h 69% 0 mm 0.0 W/m2
01:07 19.7 °C 13.9 °C 1005.3 hPa Calm   1.6 km/h 69% 0 mm 0.0 W/m2
01:12 19.7 °C 13.9 °C 1005.3 hPa Calm     69% 0 mm 0.0 W/m2
01:17 19.7 °C 13.9 °C 1005 hPa Calm     69% 0 mm 0.0 W/m2
01:22 19.7 °C 14.1 °C 1005 hPa Calm     70% 0 mm 0.0 W/m2
01:27 19.7 °C 13.9 °C 1005 hPa Calm     69% 0 mm 0.0 W/m2
01:32 19.7 °C 13.9 °C 1004.6 hPa Calm   1.6 km/h 69% 0 mm 0.0 W/m2
01:37 19.7 °C 13.9 °C 1005 hPa Calm     69% 0 mm 0.0 W/m2
01:42 19.7 °C 13.9 °C 1004.6 hPa Calm     69% 0 mm 0.0 W/m2
01:48 19.7 °C 13.9 °C 1004.6 hPa Calm     69% 0 mm 0.0 W/m2
01:53 19.7 °C 13.9 °C 1004.6 hPa Calm     69% 0 mm 0.0 W/m2
01:58 19.7 °C 13.6 °C 1004.6 hPa Calm     68% 0 mm 0.0 W/m2
02:03 19.7 °C 13.9 °C 1004.6 hPa Calm     69% 0 mm 0.0 W/m2
02:08 19.7 °C 13.9 °C 1004.6 hPa SE 1.4 km/h 3.2 km/h 69% 0 mm 0.0 W/m2
02:13 19.7 °C 13.6 °C 1004.6 hPa Calm   3.2 km/h 68% 0 mm 0.0 W/m2
02:18 19.7 °C 13.6 °C 1004.6 hPa Calm     68% 0 mm 0.0 W/m2
02:23 19.7 °C 13.6 °C 1004.6 hPa SSE 3.2 km/h 3.2 km/h 68% 0 mm 0.0 W/m2
02:29 19.6 °C 13.5 °C 1004.3 hPa Calm     68% 0 mm 0.0 W/m2
02:34 19.6 °C 13.5 °C 1004.6 hPa Calm   1.6 km/h 68% 0 mm 0.0 W/m2
02:39 19.6 °C 13.5 °C 1004.6 hPa Calm   1.6 km/h 68% 0 mm 0.0 W/m2
02:44 19.5 °C 13.4 °C 1004.3 hPa Calm   4.8 km/h 68% 0 mm 0.0 W/m2
02:49 19.4 °C 13.3 °C 1004.3 hPa Calm   4.8 km/h 68% 0 mm 0.0 W/m2
02:54 19.4 °C 13.1 °C 1004.3 hPa ESE 1.4 km/h 1.6 km/h 67% 0 mm 0.0 W/m2
03:00 19.4 °C 13.1 °C 1004.3 hPa Calm   4.8 km/h 67% 0 mm 0.0 W/m2
03:05 19.4 °C 12.9 °C 1004.3 hPa ESE 1.4 km/h 4.8 km/h 66% 0 mm 0.0 W/m2
03:10 19.4 °C 12.4 °C 1004.3 hPa Calm   1.6 km/h 64% 0 mm 0.0 W/m2
03:16 19.4 °C 12.2 °C 1004.3 hPa Calm   1.6 km/h 63% 0 mm 0.0 W/m2
03:21 19.4 °C 12.2 °C 1004.3 hPa Calm   3.2 km/h 63% 0 mm 0.0 W/m2
03:26 19.5 °C 12 °C 1003.9 hPa East 1.4 km/h 6.4 km/h 62% 0 mm 0.0 W/m2
03:31 19.6 °C 11.9 °C 1003.9 hPa Calm   6.4 km/h 61% 0 mm 0.0 W/m2
03:36 19.7 °C 12 °C 1003.9 hPa Calm   8 km/h 61% 0 mm 0.0 W/m2
03:41 19.8 °C 12.1 °C 1003.9 hPa NE 3.2 km/h 8 km/h 61% 0 mm 0.0 W/m2
03:46 19.9 °C 11.9 °C 1003.9 hPa East 4.7 km/h 9.7 km/h 60% 0 mm 0.0 W/m2
03:51 20.1 °C 12.1 °C 1003.9 hPa Calm   12.9 km/h 60% 0 mm 0.0 W/m2
03:56 20.1 °C 12.1 °C 1003.9 hPa Calm   4.8 km/h 60% 0 mm 0.0 W/m2
04:01 20.1 °C 11.8 °C 1003.9 hPa ENE 3.2 km/h 9.7 km/h 59% 0 mm 0.0 W/m2
04:07 20.1 °C 11.8 °C 1003.9 hPa East 1.4 km/h 6.4 km/h 59% 0 mm 0.0 W/m2
04:12 20.1 °C 12.1 °C 1003.9 hPa Calm   3.2 km/h 60% 0 mm 0.0 W/m2
04:17 20 °C 12 °C 1003.9 hPa ENE 1.4 km/h 3.2 km/h 60% 0 mm 0.0 W/m2
04:22 19.9 °C 11.9 °C 1003.9 hPa Calm   1.6 km/h 60% 0 mm 0.0 W/m2
04:27 19.8 °C 11.8 °C 1003.9 hPa East 4.7 km/h 4.8 km/h 60% 0 mm 0.0 W/m2
04:32 19.8 °C 11.8 °C 1003.9 hPa Calm   1.6 km/h 60% 0 mm 0.0 W/m2
04:37 19.7 °C 11.7 °C 1003.9 hPa Calm   1.6 km/h 60% 0 mm 0.0 W/m2
04:42 19.7 °C 11.5 °C 1003.9 hPa Calm   6.4 km/h 59% 0 mm 0.0 W/m2
04:47 19.6 °C 11.4 °C 1003.9 hPa Calm   6.4 km/h 59% 0 mm 0.0 W/m2
04:52 19.7 °C 11.5 °C 1003.9 hPa East 4.7 km/h 8 km/h 59% 0 mm 0.0 W/m2
04:58 19.6 °C 11.4 °C 1003.9 hPa NE 4.7 km/h 8 km/h 59% 0 mm 0.0 W/m2
05:03 19.6 °C 11.4 °C 1003.9 hPa NNE 1.4 km/h 9.7 km/h 59% 0 mm 0.0 W/m2
05:08 19.6 °C 11.6 °C 1003.9 hPa NE 1.4 km/h 6.4 km/h 60% 0 mm 0.0 W/m2
05:13 19.5 °C 11.5 °C 1003.9 hPa East 3.2 km/h 4.8 km/h 60% 0 mm 0.0 W/m2
05:18 19.4 °C 11.7 °C 1003.9 hPa Calm   8 km/h 61% 0 mm 0.0 W/m2
05:23 19.3 °C 11.6 °C 1004.3 hPa Calm   4.8 km/h 61% 0 mm 0.0 W/m2
05:28 19.3 °C 11.8 °C 1004.3 hPa Calm   4.8 km/h 62% 0 mm 0.0 W/m2
05:33 19.2 °C 11.7 °C 1004.3 hPa Calm   1.6 km/h 62% 0 mm 0.0 W/m2
05:39 19.2 °C 11.7 °C 1004.3 hPa Calm     62% 0 mm 0.0 W/m2
05:44 19.1 °C 11.9 °C 1004.3 hPa Calm   3.2 km/h 63% 0 mm 0.0 W/m2
05:49 19 °C 12 °C 1004.3 hPa Calm   3.2 km/h 64% 0 mm 0.0 W/m2
05:54 18.8 °C 11.8 °C 1004.6 hPa Calm   1.6 km/h 64% 0 mm 0.0 W/m2
05:59 18.7 °C 12 °C 1004.3 hPa Calm   1.6 km/h 65% 0 mm 0.0 W/m2
06:04 18.7 °C 12 °C 1004.6 hPa Calm   3.2 km/h 65% 0 mm 0.0 W/m2
06:09 18.6 °C 12.1 °C 1004.6 hPa ENE 1.4 km/h 3.2 km/h 66% 0 mm 0.0 W/m2
06:14 18.6 °C 12.1 °C 1004.6 hPa Calm   1.6 km/h 66% 0 mm 0.0 W/m2
06:19 18.4 °C 11.9 °C 1004.6 hPa Calm   4.8 km/h 66% 0 mm 0.0 W/m2
06:25 18.4 °C 11.9 °C 1004.6 hPa Calm   1.6 km/h 66% 0 mm 0.0 W/m2
06:30 18.3 °C 11.8 °C 1005 hPa Calm     66% 0 mm 0.0 W/m2
06:35 18.3 °C 11.8 °C 1005 hPa Calm     66% 0 mm 5.0 W/m2
06:40 18.2 °C 12 °C 1005 hPa Calm     67% 0 mm 9.0 W/m2
06:45 18.2 °C 12 °C 1005 hPa SE 1.4 km/h 3.2 km/h 67% 0 mm 12.0 W/m2
06:50 18.1 °C 11.9 °C 1005 hPa Calm   3.2 km/h 67% 0 mm 21.0 W/m2
06:55 18.1 °C 11.9 °C 1005.3 hPa Calm   1.6 km/h 67% 0 mm 28.0 W/m2
07:00 18.1 °C 11.9 °C 1005.3 hPa Calm     67% 0 mm 35.0 W/m2
07:05 18.1 °C 12.1 °C 1005.3 hPa Calm   1.6 km/h 68% 0 mm 40.0 W/m2
07:11 18.2 °C 12.2 °C 1005.3 hPa Calm   3.2 km/h 68% 0 mm 47.0 W/m2
07:16 18.3 °C 12.1 °C 1005.3 hPa SSE 1.4 km/h 4.8 km/h 67% 0 mm 69.0 W/m2
07:21 18.4 °C 11.9 °C 1005.3 hPa SSE 3.2 km/h 6.4 km/h 66% 0 mm 81.0 W/m2
07:26 18.6 °C 12.1 °C 1005.3 hPa SSE 1.4 km/h 4.8 km/h 66% 0 mm 100.0 W/m2
07:31 18.9 °C 12.2 °C 1005.3 hPa SSE 3.2 km/h 3.2 km/h 65% 0 mm 98.0 W/m2
07:36 19.2 °C 12.2 °C 1005.3 hPa SE 1.4 km/h 4.8 km/h 64% 0 mm 95.0 W/m2
07:41 19.4 °C 12.7 °C 1005.3 hPa Calm   1.6 km/h 65% 0 mm 97.0 W/m2
07:51 20.2 °C 12.4 °C 1005.3 hPa SSE 3.2 km/h 6.4 km/h 61% 0 mm 204.0 W/m2
08:02 20.8 °C 12.2 °C 1005.3 hPa Calm   1.6 km/h 58% 0 mm 121.0 W/m2
08:12 21.2 °C 12.1 °C 1005.3 hPa Calm   1.6 km/h 56% 0 mm 135.0 W/m2
08:17 21.4 °C 12.3 °C 1005.6 hPa Calm   1.6 km/h 56% 0 mm 135.0 W/m2
08:22 21.6 °C 12.4 °C 1005.3 hPa Calm     56% 0 mm 158.0 W/m2
08:27 21.7 °C 12 °C 1005.6 hPa Calm     54% 0 mm 162.0 W/m2
08:32 21.8 °C 12.4 °C 1005.6 hPa Calm     55% 0 mm 160.0 W/m2
08:37 22 °C 12.3 °C 1005.6 hPa Calm     54% 0 mm 172.0 W/m2
08:42 22.2 °C 12.2 °C 1005.6 hPa Calm   1.6 km/h 53% 0 mm 178.0 W/m2
08:53 22.4 °C 12.3 °C 1005.6 hPa Calm     53% 0 mm 160.0 W/m2
08:58 22.6 °C 12.8 °C 1005.6 hPa Calm     54% 0 mm 162.0 W/m2
09:03 22.8 °C 12.4 °C 1005.6 hPa Calm     52% 0 mm 181.0 W/m2
09:08 22.9 °C 12.5 °C 1005.6 hPa Calm     52% 0 mm 193.0 W/m2
09:13 23.1 °C 12.4 °C 1005.6 hPa Calm     51% 0 mm 213.0 W/m2
09:18 23.2 °C 11.6 °C 1005.6 hPa Calm     48% 0 mm 214.0 W/m2
09:23 23.4 °C 11.8 °C 1005.6 hPa Calm     48% 0 mm 202.0 W/m2
09:28 23.7 °C 12 °C 1005.6 hPa Calm     48% 0 mm 207.0 W/m2
09:33 23.8 °C 11.5 °C 1005.6 hPa Calm     46% 0 mm 221.0 W/m2
09:39 23.9 °C 11.6 °C 1005.6 hPa Calm   1.6 km/h 46% 0 mm 244.0 W/m2
09:44 24 °C 11 °C 1005.6 hPa Calm   1.6 km/h 44% 0 mm 243.0 W/m2
09:49 24.1 °C 10.7 °C 1005.6 hPa Calm   3.2 km/h 43% 0 mm 255.0 W/m2
09:54 24.3 °C 11.3 °C 1005.6 hPa Calm   3.2 km/h 44% 0 mm 302.0 W/m2
09:59 24.4 °C 11.4 °C 1005.6 hPa Calm   1.6 km/h 44% 0 mm 258.0 W/m2
10:04 24.6 °C 11.5 °C 1005.6 hPa Calm   3.2 km/h 44% 0 mm 239.0 W/m2
10:09 24.7 °C 11.3 °C 1006 hPa Calm   4.8 km/h 43% 0 mm 271.0 W/m2
10:15 25.1 °C 11.3 °C 1006 hPa NNW 4.7 km/h 6.4 km/h 42% 0 mm 986.0 W/m2
10:20 25.8 °C 10.8 °C 1005.6 hPa NNE 1.4 km/h 6.4 km/h 39% 0 mm 584.0 W/m2
10:25 26.2 °C 10.4 °C 1006 hPa NW 6.4 km/h 19.3 km/h 37% 0 mm 401.0 W/m2
10:35 26.2 °C 10.8 °C 1006 hPa NNW 14.3 km/h 20.9 km/h 38% 0 mm 561.0 W/m2
10:40 26.4 °C 10.9 °C 1006.3 hPa NW 11.1 km/h 20.9 km/h 38% 0 mm 703.0 W/m2
10:45 26.6 °C 10.7 °C 1006.3 hPa North 13 km/h 24.1 km/h 37% 0 mm 691.0 W/m2
10:50 26.5 °C 10.6 °C 1006 hPa NNE 11.1 km/h 19.3 km/h 37% 0 mm 969.0 W/m2
10:56 26.7 °C 11.2 °C 1006.3 hPa NNW 6.4 km/h 12.9 km/h 38% 0 mm 1148.0 W/m2
11:01 26.8 °C 10.9 °C 1006.3 hPa NNW 4.7 km/h 14.5 km/h 37% 0 mm 336.0 W/m2
11:06 26.7 °C 11.2 °C 1006.3 hPa WNW 7.9 km/h 14.5 km/h 38% 0 mm 367.0 W/m2
11:11 26.6 °C 11.1 °C 1006.3 hPa North 4.7 km/h 11.3 km/h 38% 0 mm 401.0 W/m2
11:16 26.9 °C 11.4 °C 1006.3 hPa NW 13 km/h 20.9 km/h 38% 0 mm 1114.0 W/m2
11:21 27.2 °C 11.2 °C 1006.3 hPa Calm   12.9 km/h 37% 0 mm 1114.0 W/m2
11:26 27.4 °C 11.8 °C 1006 hPa West 7.9 km/h 19.3 km/h 38% 0 mm 747.0 W/m2
11:31 27.7 °C 11.7 °C 1006.3 hPa WNW 7.9 km/h 12.9 km/h 37% 0 mm 747.0 W/m2
11:37 28.2 °C 12.1 °C 1006 hPa North 7.9 km/h 11.3 km/h 37% 0 mm 1046.0 W/m2
11:42 28.4 °C 11.9 °C 1006 hPa NNE 13 km/h 17.7 km/h 36% 0 mm 1025.0 W/m2
11:47 28.3 °C 12.2 °C 1005.6 hPa NW 1.4 km/h 16.1 km/h 37% 0 mm 1025.0 W/m2
11:53 28.3 °C 12.2 °C 1006 hPa North 9.7 km/h 16.1 km/h 37% 0 mm 1165.0 W/m2
11:58 28.4 °C 11.9 °C 1005.6 hPa NW 13 km/h 13 km/h 36% 0 mm 1179.0 W/m2
12:03 28.6 °C 12.5 °C 1005.6 hPa SSW 1.4 km/h 14.5 km/h 37% 0 mm 1046.0 W/m2
12:08 28.7 °C 12.2 °C 1005.6 hPa NNE 11.1 km/h 20.9 km/h 36% 0 mm 1062.0 W/m2
12:13 28.7 °C 13 °C 1005.3 hPa North 3.2 km/h 11.3 km/h 38% 0 mm 1078.0 W/m2
12:18 29 °C 12.4 °C 1005.3 hPa North 16.3 km/h 22.5 km/h 36% 0 mm 1099.0 W/m2
12:23 29.1 °C 12.5 °C 1005.3 hPa North 14.3 km/h 14.5 km/h 36% 0 mm 724.0 W/m2
12:28 28.9 °C 12.7 °C 1005.3 hPa West 17.7 km/h 17.7 km/h 37% 0 mm 197.0 W/m2
12:34 28.4 °C 12.3 °C 1005.3 hPa NNW 6.4 km/h 6.4 km/h 37% 0 mm 209.0 W/m2
12:39 28.3 °C 12.6 °C 1005 hPa WSW 4.7 km/h 12.9 km/h 38% 0 mm 1148.0 W/m2
12:44 28.5 °C 12.4 °C 1005 hPa West 1.4 km/h 14.5 km/h 37% 0 mm 1074.0 W/m2
12:49 28.9 °C 12.3 °C 1005 hPa NW 17.7 km/h 27.4 km/h 36% 0 mm 1085.0 W/m2
12:54 29 °C 12.4 °C 1005 hPa West 3.2 km/h 19.3 km/h 36% 0 mm 1067.0 W/m2
12:59 29.1 °C 12.5 °C 1004.6 hPa West 4.7 km/h 14.5 km/h 36% 0 mm 1097.0 W/m2
13:04 29.4 °C 11.9 °C 1004.6 hPa NW 4.7 km/h 12.9 km/h 34% 0 mm 1192.0 W/m2
13:09 29.8 °C 11.8 °C 1004.6 hPa NW 13 km/h 24.1 km/h 33% 0 mm 1185.0 W/m2
13:14 29.8 °C 11.8 °C 1004.6 hPa NNW 6.4 km/h 16.1 km/h 33% 0 mm 420.0 W/m2
13:19 29.8 °C 11.8 °C 1004.6 hPa WNW 3.2 km/h 17.7 km/h 33% 0 mm 1134.0 W/m2
13:24 30.2 °C 11.7 °C 1004.6 hPa North 3.2 km/h 22.5 km/h 32% 0 mm 1143.0 W/m2
13:29 30.4 °C 11.9 °C 1004.3 hPa NW 1.4 km/h 16.1 km/h 32% 0 mm 1215.0 W/m2
13:34 30.6 °C 12 °C 1004.3 hPa West 3.2 km/h 19.3 km/h 32% 0 mm 1174.0 W/m2
13:40 30.7 °C 11.6 °C 1004.3 hPa North 7.9 km/h 16.1 km/h 31% 0 mm 1195.0 W/m2
13:45 30.7 °C 11.6 °C 1003.9 hPa NNW 13 km/h 14.5 km/h 31% 0 mm 1229.0 W/m2
13:50 30.6 °C 11.5 °C 1003.9 hPa West 1.4 km/h 17.7 km/h 31% 0 mm 390.0 W/m2
13:56 30.1 °C 11.6 °C 1003.9 hPa SSW 1.4 km/h 11.3 km/h 32% 0 mm 403.0 W/m2
14:01 29.8 °C 11.8 °C 1003.9 hPa NNE 3.2 km/h 16.1 km/h 33% 0 mm 320.0 W/m2
14:06 29.8 °C 11.8 °C 1003.9 hPa NW 13 km/h 19.3 km/h 33% 0 mm 271.0 W/m2
14:11 29.6 °C 11.6 °C 1003.9 hPa North 6.4 km/h 16.1 km/h 33% 0 mm 1134.0 W/m2
14:16 30.2 °C 11.7 °C 1003.6 hPa NW 17.7 km/h 22.5 km/h 32% 0 mm 1074.0 W/m2
14:21 30.5 °C 11.9 °C 1003.6 hPa West 9.7 km/h 24.1 km/h 32% 0 mm 1113.0 W/m2
14:26 30.8 °C 11.7 °C 1003.3 hPa NNW 4.7 km/h 12.9 km/h 31% 0 mm 1085.0 W/m2
14:31 31.2 °C 12.1 °C 1003.3 hPa WSW 7.9 km/h 12.9 km/h 31% 0 mm 237.0 W/m2
14:37 30.4 °C 12.3 °C 1003.3 hPa WNW 11.1 km/h 17.7 km/h 33% 0 mm 313.0 W/m2
14:42 30 °C 12.9 °C 1003.3 hPa NNW 14.3 km/h 17.7 km/h 35% 0 mm 1204.0 W/m2
14:47 30.3 °C 13.1 °C 1003.3 hPa NNW 13 km/h 17.7 km/h 35% 0 mm 1143.0 W/m2
14:52 30.4 °C 12.3 °C 1003.3 hPa West 9.7 km/h 25.7 km/h 33% 0 mm 1044.0 W/m2
14:57 30.4 °C 12.3 °C 1002.9 hPa NNW 4.7 km/h 25.7 km/h 33% 0 mm 1139.0 W/m2
15:02 30.7 °C 12.1 °C 1002.9 hPa NNW 16.3 km/h 22.5 km/h 32% 0 mm 956.0 W/m2
15:07 30.5 °C 9.9 °C 1002.9 hPa NNW 20.9 km/h 27.4 km/h 28% 0 mm 958.0 W/m2
15:12 30.1 °C 10.1 °C 1002.9 hPa NNW 11.1 km/h 22.5 km/h 29% 0 mm 705.0 W/m2
15:17 29.6 °C 11.2 °C 1002.9 hPa North 20.9 km/h 22.5 km/h 32% 0 mm 622.0 W/m2
15:22 28.9 °C 11 °C 1002.9 hPa North 16.3 km/h 24.1 km/h 33% 0 mm 207.0 W/m2
15:27 28.2 °C 9.9 °C 1002.9 hPa North 14.3 km/h 19.3 km/h 32% 0 mm 176.0 W/m2
15:32 27.7 °C 10.4 °C 1002.9 hPa NE 17.7 km/h 27.4 km/h 34% 0 mm 162.0 W/m2
15:37 27 °C 11.9 °C 1002.9 hPa NNE 28.8 km/h 35.4 km/h 39% 0 mm 179.0 W/m2
15:43 26.1 °C 12.2 °C 1002.9 hPa NNE 11.1 km/h 24.1 km/h 42% 0 mm 167.0 W/m2
15:48 25.8 °C 12.3 °C 1002.6 hPa NW 16.3 km/h 22.5 km/h 43% 0 mm 139.0 W/m2
15:53 25.5 °C 12 °C 1002.6 hPa ENE 17.7 km/h 22.5 km/h 43% 0 mm 121.0 W/m2
15:59 25.2 °C 11.7 °C 1002.6 hPa West 13 km/h 20.9 km/h 43% 0 mm 109.0 W/m2
16:04 25 °C 11.9 °C 1002.6 hPa NNW 9.7 km/h 16.1 km/h 44% 0 mm 104.0 W/m2
16:09 24.8 °C 12.1 °C 1002.3 hPa NW 13 km/h 19.3 km/h 45% 0 mm 104.0 W/m2
16:14 24.7 °C 12.3 °C 1002.3 hPa NW 14.3 km/h 17.7 km/h 46% 0 mm 102.0 W/m2
16:19 24.5 °C 12.1 °C 1002.6 hPa North 7.9 km/h 12.9 km/h 46% 0 mm 104.0 W/m2
16:24 24.5 °C 12.4 °C 1002.6 hPa NNE 11.1 km/h 11.3 km/h 47% 0 mm 107.0 W/m2
16:29 24.4 °C 12.4 °C 1002.6 hPa Calm   12.9 km/h 47% 0 mm 105.0 W/m2
16:34 24.4 °C 12.4 °C 1002.9 hPa NW 6.4 km/h 11.3 km/h 47% 0 mm 100.0 W/m2
16:39 24.4 °C 12.4 °C 1002.9 hPa NNW 4.7 km/h 9.7 km/h 47% 0 mm 95.0 W/m2
16:45 24.4 °C 12.4 °C 1002.9 hPa NW 6.4 km/h 16.1 km/h 47% 0 mm 100.0 W/m2
16:50 24.3 °C 12.6 °C 1002.6 hPa Calm   8 km/h 48% 0 mm 98.0 W/m2
16:55 24.4 °C 12.7 °C 1002.6 hPa NNW 1.4 km/h 12.9 km/h 48% 0 mm 93.0 W/m2
17:00 24.4 °C 12.7 °C 1002.3 hPa Calm   9.7 km/h 48% 0 mm 84.0 W/m2
17:05 24.4 °C 12.7 °C 1002.3 hPa NNE 3.2 km/h 6.4 km/h 48% 0 mm 81.0 W/m2
17:10 24.4 °C 12.7 °C 1002.3 hPa Calm   4.8 km/h 48% 0 mm 81.0 W/m2
17:15 24.4 °C 12.7 °C 1002.3 hPa NNW 1.4 km/h 4.8 km/h 48% 0 mm 90.0 W/m2
17:20 24.4 °C 12.7 °C 1002.6 hPa NNW 1.4 km/h 11.3 km/h 48% 0 mm 118.0 W/m2
17:25 24.4 °C 12.7 °C 1002.6 hPa NNW 3.2 km/h 6.4 km/h 48% 0 mm 171.0 W/m2
17:30 24.6 °C 12.9 °C 1002.9 hPa NW 7.9 km/h 22.5 km/h 48% 0 mm 207.0 W/m2
17:35 24.6 °C 12.9 °C 1002.6 hPa NNW 11.1 km/h 11.3 km/h 48% 0 mm 209.0 W/m2
17:40 24.6 °C 12.5 °C 1002.6 hPa NNW 4.7 km/h 9.7 km/h 47% 0 mm 174.0 W/m2
17:46 24.7 °C 13 °C 1002.9 hPa North 3.2 km/h 11.3 km/h 48% 0 mm 149.0 W/m2
17:51 24.7 °C 13 °C 1002.9 hPa NE 7.9 km/h 11.3 km/h 48% 0 mm 135.0 W/m2
17:56 24.8 °C 13 °C 1002.9 hPa North 7.9 km/h 8 km/h 48% 0 mm 114.0 W/m2
18:01 24.9 °C 13.1 °C 1002.9 hPa NNE 3.2 km/h 6.4 km/h 48% 0 mm 105.0 W/m2
18:07 24.9 °C 12.8 °C 1003.3 hPa NNE 4.7 km/h 12.9 km/h 47% 0 mm 114.0 W/m2
18:12 24.9 °C 12.5 °C 1003.3 hPa NNW 13 km/h 13 km/h 46% 0 mm 118.0 W/m2
18:17 24.8 °C 12.7 °C 1003.3 hPa NNW 4.7 km/h 9.7 km/h 47% 0 mm 178.0 W/m2
18:22 24.7 °C 13 °C 1003.3 hPa North 7.9 km/h 11.3 km/h 48% 0 mm 137.0 W/m2
18:27 24.6 °C 13.2 °C 1003.3 hPa NNE 13 km/h 20.9 km/h 49% 0 mm 116.0 W/m2
18:32 24.2 °C 13.1 °C 1003.6 hPa NNE 7.9 km/h 14.5 km/h 50% 0 mm 90.0 W/m2
18:37 23.7 °C 13.3 °C 1003.6 hPa NNW 16.3 km/h 17.7 km/h 52% 0 mm 76.0 W/m2
18:42 23.3 °C 13.5 °C 1003.3 hPa NNW 7.9 km/h 19.3 km/h 54% 0 mm 121.0 W/m2
18:47 23.2 °C 13.4 °C 1003.3 hPa North 7.9 km/h 16.1 km/h 54% 0 mm 77.0 W/m2
18:52 23 °C 13.5 °C 1003.3 hPa NNW 9.7 km/h 17.7 km/h 55% 0 mm 98.0 W/m2
18:57 22.9 °C 13.4 °C 1003.3 hPa NNW 4.7 km/h 12.9 km/h 55% 0 mm 105.0 W/m2
19:03 22.9 °C 13.4 °C 1003.3 hPa North 4.7 km/h 17.7 km/h 55% 0 mm 100.0 W/m2
19:08 23.1 °C 13.6 °C 1003.3 hPa North 13 km/h 13 km/h 55% 0 mm 79.0 W/m2
19:13 23.1 °C 13.6 °C 1003.3 hPa NNE 6.4 km/h 12.9 km/h 55% 0 mm 56.0 W/m2
19:18 23.1 °C 13.6 °C 1003.6 hPa Calm   3.2 km/h 55% 0 mm 44.0 W/m2
19:23 23.1 °C 13.6 °C 1003.6 hPa NNW 9.7 km/h 12.9 km/h 55% 0 mm 35.0 W/m2
19:28 23.1 °C 13.8 °C 1003.9 hPa NNW 3.2 km/h 9.7 km/h 56% 0 mm 25.0 W/m2
19:33 22.9 °C 12.8 °C 1003.9 hPa NNW 7.9 km/h 12.9 km/h 53% 0 mm 19.0 W/m2
19:38 22.8 °C 13 °C 1003.9 hPa NW 7.9 km/h 9.7 km/h 54% 0 mm 16.0 W/m2
19:44 22.7 °C 12.9 °C 1003.9 hPa NW 4.7 km/h 11.3 km/h 54% 0 mm 12.0 W/m2
19:49 22.6 °C 12.8 °C 1004.3 hPa Calm   4.8 km/h 54% 0 mm 9.0 W/m2
19:55 22.6 °C 13.1 °C 1004.3 hPa Calm   9.7 km/h 55% 0 mm 0.0 W/m2
20:00 22.4 °C 13.2 °C 1004.6 hPa NW 6.4 km/h 8 km/h 56% 0 mm 0.0 W/m2
20:05 22.3 °C 13.1 °C 1004.6 hPa WSW 3.2 km/h 4.8 km/h 56% 0 mm 0.0 W/m2
20:10 22.2 °C 13 °C 1004.6 hPa Calm   1.6 km/h 56% 0 mm 0.0 W/m2
20:15 22.1 °C 12.9 °C 1004.6 hPa Calm   3.2 km/h 56% 0 mm 0.0 W/m2
20:20 22 °C 12.8 °C 1004.6 hPa WSW 3.2 km/h 3.2 km/h 56% 0 mm 0.0 W/m2
20:25 21.9 °C 13.3 °C 1005 hPa WSW 3.2 km/h 3.2 km/h 58% 0 mm 0.0 W/m2
20:31 21.7 °C 13.1 °C 1005 hPa WSW 3.2 km/h 4.8 km/h 58% 0 mm 0.0 W/m2
20:36 21.6 °C 13.2 °C 1005 hPa WSW 3.2 km/h 4.8 km/h 59% 0 mm 0.0 W/m2
20:41 21.4 °C 13.1 °C 1005.3 hPa WSW 1.4 km/h 4.8 km/h 59% 0 mm 0.0 W/m2
20:46 21.3 °C 13 °C 1005.3 hPa Calm   4.8 km/h 59% 0 mm 0.0 W/m2
20:51 21.2 °C 12.9 °C 1005.3 hPa Calm   3.2 km/h 59% 0 mm 0.0 W/m2
20:56 21.2 °C 13.1 °C 1005.6 hPa Calm     60% 0 mm 0.0 W/m2
21:01 21.1 °C 13 °C 1005.6 hPa Calm     60% 0 mm 0.0 W/m2
21:06 21 °C 12.9 °C 1005.6 hPa Calm     60% 0 mm 0.0 W/m2
21:11 20.9 °C 12.8 °C 1005.6 hPa Calm     60% 0 mm 0.0 W/m2
21:17 20.9 °C 12.8 °C 1005.6 hPa Calm     60% 0 mm 0.0 W/m2
21:22 20.8 °C 12.7 °C 1005.6 hPa Calm     60% 0 mm 0.0 W/m2
21:27 20.8 °C 13 °C 1005.6 hPa Calm     61% 0 mm 0.0 W/m2
21:32 20.7 °C 12.9 °C 1005.6 hPa Calm     61% 0 mm 0.0 W/m2
21:37 20.7 °C 12.9 °C 1006 hPa Calm     61% 0 mm 0.0 W/m2
21:42 20.6 °C 12.8 °C 1006 hPa Calm     61% 0 mm 0.0 W/m2
21:47 20.6 °C 13.1 °C 1006 hPa Calm     62% 0 mm 0.0 W/m2
21:52 20.5 °C 13 °C 1006 hPa Calm     62% 0 mm 0.0 W/m2
21:58 20.4 °C 12.9 °C 1006 hPa Calm     62% 0 mm 0.0 W/m2
22:08 20.3 °C 13 °C 1006 hPa Calm     63% 0 mm 0.0 W/m2
22:13 20.3 °C 13 °C 1006.3 hPa Calm     63% 0 mm 0.0 W/m2
22:23 20.2 °C 12.9 °C 1006.3 hPa Calm     63% 0 mm 0.0 W/m2
22:28 20.1 °C 12.8 °C 1006.3 hPa Calm     63% 0 mm 0.0 W/m2
22:33 20.1 °C 13.1 °C 1006.3 hPa Calm     64% 0 mm 0.0 W/m2
22:43 19.9 °C 12.9 °C 1006.7 hPa Calm     64% 0 mm 0.0 W/m2
22:53 19.9 °C 11.6 °C 1006.7 hPa Calm     59% 0 mm 0.0 W/m2
22:58 19.8 °C 9.9 °C 1006.7 hPa Calm     53% 0 mm 0.0 W/m2
23:04 19.8 °C 9.4 °C 1006.7 hPa Calm   1.6 km/h 51% 0 mm 0.0 W/m2
23:09 19.8 °C 9.7 °C 1006.7 hPa Calm     52% 0 mm 0.0 W/m2
23:14 19.8 °C 9.4 °C 1006.7 hPa Calm     51% 0 mm 0.0 W/m2
23:19 19.7 °C 9.3 °C 1006.7 hPa Calm     51% 0 mm 0.0 W/m2
23:24 19.7 °C 9.3 °C 1006.7 hPa Calm     51% 0 mm 0.0 W/m2
23:29 19.6 °C 8.9 °C 1006.7 hPa Calm   1.6 km/h 50% 0 mm 0.0 W/m2
23:34 19.6 °C 8.6 °C 1006.7 hPa Calm   1.6 km/h 49% 0 mm 0.0 W/m2
23:39 19.6 °C 8.3 °C 1006.7 hPa Calm   1.6 km/h 48% 0 mm 0.0 W/m2
23:49 19.6 °C 8 °C 1006.7 hPa Calm     47% 0 mm 0.0 W/m2
23:54 19.6 °C 8 °C 1006.7 hPa Calm     47% 0 mm 0.0 W/m2
Olympia, Windhoek, Namibia
Compliments of Weather Underground - 3.25 mb